Time;durP1;ratioP1;P1;durP2;ratioP2;P2;SDS_P1;SDS_P2;PMS_P1;PMS_P2;Temp;Humidity;BMP_temperature;BMP_pressure;BME280_temperature;BME280_humidity;BME280_pressure;Samples;Min_cycle;Max_cycle;Signal;HPM_P1;HPM_P2
2022/03/29 00:01:42;;;;;;;;;;;15.80;73.80;;;;;;5075893;28;19999;-83
2022/03/29 00:04:07;;;;;;;;;;;15.70;69.60;;;;;;5075928;28;19920;-84
2022/03/29 00:06:33;;;;;;;;;;;15.60;70.20;;;;;;5075870;28;19909;-85
2022/03/29 00:08:58;;;;;;;;;;;15.50;66.40;;;;;;5075287;28;19908;-84
2022/03/29 00:11:24;;;;;;;;;;;15.50;71.00;;;;;;5075812;28;20280;-84
2022/03/29 00:13:49;;;;;;;;;;;15.70;70.30;;;;;;5075702;28;19954;-84
2022/03/29 00:16:15;;;;;;;;;;;15.70;68.60;;;;;;5075892;28;19909;-83
2022/03/29 00:18:41;;;;;;;;;;;15.80;67.10;;;;;;5056978;28;20081;-84
2022/03/29 00:21:06;;;;;;;;;;;15.70;69.20;;;;;;5075315;28;19919;-83
2022/03/29 00:23:32;;;;;;;;;;;15.70;72.30;;;;;;5075448;28;19909;-84
2022/03/29 00:25:57;;;;;;;;;;;15.70;74.20;;;;;;5057473;28;19908;-84
2022/03/29 00:28:23;;;;;;;;;;;15.60;74.50;;;;;;5075321;28;19958;-84
2022/03/29 00:30:49;;;;;;;;;;;15.40;74.20;;;;;;5075355;28;20003;-84
2022/03/29 00:33:14;;;;;;;;;;;15.10;74.60;;;;;;5075678;28;19916;-84
2022/03/29 00:35:40;;;;;;;;;;;15.10;74.10;;;;;;5074666;28;19951;-84
2022/03/29 00:38:05;;;;;;;;;;;15.20;74.60;;;;;;5075256;28;19912;-85
2022/03/29 00:40:31;;;;;;;;;;;15.20;74.70;;;;;;5056696;28;20331;-85
2022/03/29 00:42:57;;;;;;;;;;;15.20;73.30;;;;;;5075076;28;20453;-84
2022/03/29 00:45:23;;;;;;;;;;;15.30;73.20;;;;;;5057151;28;19962;-83
2022/03/29 00:47:48;;;;;;;;;;;15.10;72.60;;;;;;5057065;28;19909;-85
2022/03/29 00:50:14;;;;;;;;;;;15.00;73.10;;;;;;5069978;28;20003;-84
2022/03/29 00:52:40;;;;;;;;;;;15.10;72.20;;;;;;5055084;28;19908;-84
2022/03/29 00:55:06;;;;;;;;;;;15.50;71.40;;;;;;5053569;28;20070;-84
2022/03/29 00:57:34;;;;;;;;;;;15.60;71.70;;;;;;5053672;28;20289;-84
2022/03/29 01:00:00;;;;;;;;;;;15.40;72.00;;;;;;5053036;28;20292;-85
2022/03/29 01:02:26;;;;;;;;;;;15.50;71.60;;;;;;5054379;28;20000;-85
2022/03/29 01:04:51;;;;;;;;;;;15.60;71.70;;;;;;5054672;28;19920;-85
2022/03/29 01:07:17;;;;;;;;;;;15.60;71.90;;;;;;5054634;28;20316;-86
2022/03/29 01:09:43;;;;;;;;;;;15.50;72.10;;;;;;5053088;28;19948;-85
2022/03/29 01:12:09;;;;;;;;;;;15.10;73.80;;;;;;5054659;28;19909;-85
2022/03/29 01:14:34;;;;;;;;;;;14.80;75.30;;;;;;5054688;28;19909;-84
2022/03/29 01:19:45;;;;;;;;;;;14.60;77.30;;;;;;5054073;28;19919;-85
2022/03/29 01:22:11;;;;;;;;;;;14.80;77.50;;;;;;5054457;28;19908;-84
2022/03/29 01:24:37;;;;;;;;;;;15.10;77.50;;;;;;5054406;28;19920;-84
2022/03/29 01:27:04;;;;;;;;;;;15.00;76.40;;;;;;5054271;28;19916;-84
2022/03/29 01:29:31;;;;;;;;;;;15.10;76.30;;;;;;5053987;28;19996;-84
2022/03/29 01:31:57;;;;;;;;;;;15.10;76.50;;;;;;5054058;28;19920;-82
2022/03/29 01:34:23;;;;;;;;;;;15.10;76.80;;;;;;5054208;28;19908;-84
2022/03/29 01:36:49;;;;;;;;;;;15.00;76.90;;;;;;5054172;28;20003;-84
2022/03/29 01:39:15;;;;;;;;;;;14.90;77.50;;;;;;5053739;28;19948;-85
2022/03/29 01:41:40;;;;;;;;;;;14.90;79.20;;;;;;5036297;28;19916;-83
2022/03/29 01:44:06;;;;;;;;;;;14.90;80.40;;;;;;5053977;28;19917;-84
2022/03/29 01:46:32;;;;;;;;;;;14.80;81.20;;;;;;5053531;28;19909;-84
2022/03/29 01:48:59;;;;;;;;;;;14.50;82.50;;;;;;5035443;28;20365;-85
2022/03/29 01:51:24;;;;;;;;;;;14.20;83.30;;;;;;5036041;28;19909;-85
2022/03/29 01:53:57;;;;;;;;;;;14.10;83.10;;;;;;5053852;28;19909;-85
2022/03/29 01:56:27;;;;;;;;;;;14.00;82.20;;;;;;5053627;28;19909;-85
2022/03/29 01:58:52;;;;;;;;;;;14.10;81.70;;;;;;5053579;28;19908;-85
2022/03/29 02:01:18;;;;;;;;;;;14.10;82.30;;;;;;5053733;28;19915;-85
2022/03/29 02:03:44;;;;;;;;;;;14.20;82.20;;;;;;5035824;28;19917;-84
2022/03/29 02:06:09;;;;;;;;;;;14.10;83.20;;;;;;5035713;28;20284;-84
2022/03/29 02:08:35;;;;;;;;;;;14.10;83.70;;;;;;5053417;28;19915;-84
2022/03/29 02:11:01;;;;;;;;;;;14.20;84.20;;;;;;5053073;28;20392;-84
2022/03/29 02:13:26;;;;;;;;;;;14.10;85.50;;;;;;5053537;28;20008;-84
2022/03/29 02:15:52;;;;;;;;;;;14.00;86.70;;;;;;5053573;28;19915;-84
2022/03/29 02:18:18;;;;;;;;;;;14.00;87.20;;;;;;5053264;28;20377;-84
2022/03/29 02:20:43;;;;;;;;;;;14.00;87.70;;;;;;5035119;28;20054;-84
2022/03/29 02:23:12;;;;;;;;;;;13.80;91.20;;;;;;5053389;28;19909;-85
2022/03/29 02:25:38;;;;;;;;;;;13.90;91.50;;;;;;5035417;28;19952;-84
2022/03/29 02:28:04;;;;;;;;;;;14.00;92.10;;;;;;5035509;28;19951;-85
2022/03/29 02:30:30;;;;;;;;;;;13.80;93.10;;;;;;5066914;28;19915;-84
2022/03/29 02:32:55;;;;;;;;;;;13.60;94.90;;;;;;5073043;28;19908;-84
2022/03/29 02:35:21;;;;;;;;;;;13.40;95.20;;;;;;5073294;28;19930;-84
2022/03/29 02:37:47;;;;;;;;;;;13.30;96.50;;;;;;5055297;28;19918;-83
2022/03/29 02:40:15;;;;;;;;;;;13.40;96.80;;;;;;5072817;28;19915;-84
2022/03/29 02:42:42;;;;;;;;;;;13.60;96.50;;;;;;5073237;28;19955;-84
2022/03/29 02:45:09;;;;;;;;;;;13.80;95.10;;;;;;5055203;28;19947;-84
2022/03/29 02:47:35;;;;;;;;;;;13.60;95.40;;;;;;5073193;28;19909;-84
2022/03/29 02:50:00;;;;;;;;;;;13.70;96.20;;;;;;5054720;28;19909;-84
2022/03/29 02:52:26;;;;;;;;;;;13.70;96.30;;;;;;5073115;28;19912;-84
2022/03/29 02:54:52;;;;;;;;;;;13.50;95.60;;;;;;5073103;28;19916;-85
2022/03/29 02:57:17;;;;;;;;;;;13.40;95.70;;;;;;5073065;28;19909;-84
2022/03/29 02:59:45;;;;;;;;;;;13.10;96.40;;;;;;5069131;28;20022;-84
2022/03/29 03:02:11;;;;;;;;;;;13.10;95.80;;;;;;5038970;28;19909;-85
2022/03/29 03:04:37;;;;;;;;;;;13.20;95.50;;;;;;5038991;28;19940;-85
2022/03/29 03:07:02;;;;;;;;;;;13.10;95.10;;;;;;5056961;28;19959;-84
2022/03/29 03:09:28;;;;;;;;;;;13.10;95.80;;;;;;5056697;28;19909;-86
2022/03/29 03:11:54;;;;;;;;;;;13.10;95.90;;;;;;5057009;28;20017;-85
2022/03/29 03:14:20;;;;;;;;;;;13.20;96.10;;;;;;5038989;28;19916;-84
2022/03/29 03:16:45;;;;;;;;;;;13.40;96.40;;;;;;5056830;28;19909;-84
2022/03/29 03:19:12;;;;;;;;;;;13.20;95.60;;;;;;5056352;28;20008;-83
2022/03/29 03:21:37;;;;;;;;;;;13.00;96.50;;;;;;5056705;28;19916;-84
2022/03/29 03:24:03;;;;;;;;;;;12.90;97.10;;;;;;5056689;28;19917;-85
2022/03/29 03:26:29;;;;;;;;;;;12.80;97.50;;;;;;5056539;28;20431;-84
2022/03/29 03:28:54;;;;;;;;;;;12.60;98.10;;;;;;5038734;28;19908;-85
2022/03/29 03:31:20;;;;;;;;;;;12.50;98.50;;;;;;5038140;28;19947;-84
2022/03/29 03:33:45;;;;;;;;;;;12.40;97.90;;;;;;5056523;28;19913;-82
2022/03/29 03:36:11;;;;;;;;;;;12.40;98.10;;;;;;5056544;28;20325;-84
2022/03/29 03:38:37;;;;;;;;;;;12.30;98.30;;;;;;5038438;28;19913;-84
2022/03/29 03:41:02;;;;;;;;;;;12.30;98.50;;;;;;5055972;28;20331;-85
2022/03/29 03:43:28;;;;;;;;;;;12.30;98.20;;;;;;5056084;28;20007;-83
2022/03/29 03:45:53;;;;;;;;;;;12.30;97.60;;;;;;5038404;28;19915;-85
2022/03/29 03:48:19;;;;;;;;;;;12.50;96.80;;;;;;5056328;28;19909;-84
2022/03/29 03:50:45;;;;;;;;;;;12.40;96.60;;;;;;5069356;28;19961;-84
2022/03/29 03:53:11;;;;;;;;;;;12.40;97.10;;;;;;5058266;28;20007;-84
2022/03/29 03:55:37;;;;;;;;;;;12.30;97.10;;;;;;5075825;28;20303;-85
2022/03/29 03:58:02;;;;;;;;;;;12.40;97.40;;;;;;5058140;28;19908;-84
2022/03/29 04:00:28;;;;;;;;;;;12.10;97.50;;;;;;5075589;28;19916;-85
2022/03/29 04:02:54;;;;;;;;;;;11.90;98.80;;;;;;5058037;28;20046;-84
2022/03/29 04:05:21;;;;;;;;;;;11.90;99.70;;;;;;5075864;28;19919;-83
2022/03/29 04:07:47;;;;;;;;;;;12.00;99.60;;;;;;5075672;28;19919;-84
2022/03/29 04:10:12;;;;;;;;;;;11.90;99.90;;;;;;5065969;28;19908;-84
2022/03/29 04:12:38;;;;;;;;;;;11.90;99.90;;;;;;5055774;28;19909;-84
2022/03/29 04:15:04;;;;;;;;;;;11.90;99.90;;;;;;5055772;28;19952;-84
2022/03/29 04:17:31;;;;;;;;;;;11.80;99.90;;;;;;5055458;28;19999;-84
2022/03/29 04:19:58;;;;;;;;;;;12.00;99.90;;;;;;5055257;28;19913;-84
2022/03/29 04:22:23;;;;;;;;;;;12.10;99.70;;;;;;5037768;28;20373;-84
2022/03/29 04:24:49;;;;;;;;;;;12.00;99.90;;;;;;5055467;28;19919;-84
2022/03/29 04:27:15;;;;;;;;;;;12.00;99.70;;;;;;5055608;28;19912;-84
2022/03/29 04:29:41;;;;;;;;;;;11.90;99.90;;;;;;5058578;28;20292;-85
2022/03/29 04:32:08;;;;;;;;;;;12.10;99.90;;;;;;5075261;28;20026;-83
2022/03/29 04:34:34;;;;;;;;;;;12.00;99.40;;;;;;5075500;28;20003;-84
2022/03/29 04:37:00;;;;;;;;;;;12.00;99.80;;;;;;5075278;28;19908;-85
2022/03/29 04:39:26;;;;;;;;;;;12.00;99.90;;;;;;5056425;28;20327;-84
2022/03/29 04:41:51;;;;;;;;;;;12.00;99.90;;;;;;5055159;28;19915;-83
2022/03/29 04:44:17;;;;;;;;;;;12.10;99.40;;;;;;5037035;28;19913;-85
2022/03/29 04:46:43;;;;;;;;;;;12.10;99.10;;;;;;5055104;28;19913;-85
2022/03/29 04:49:08;;;;;;;;;;;12.00;98.90;;;;;;5055105;28;19909;-84
2022/03/29 04:51:34;;;;;;;;;;;12.00;98.80;;;;;;5054610;28;19999;-84
2022/03/29 04:54:01;;;;;;;;;;;11.90;98.80;;;;;;5054908;28;19963;-85
2022/03/29 04:56:27;;;;;;;;;;;11.80;98.90;;;;;;5036917;28;19958;-84
2022/03/29 04:58:52;;;;;;;;;;;11.70;99.00;;;;;;5055098;28;19913;-83
2022/03/29 05:01:18;;;;;;;;;;;11.70;98.80;;;;;;5054450;28;19909;-84
2022/03/29 05:03:43;;;;;;;;;;;11.60;99.00;;;;;;5054757;28;20293;-82
2022/03/29 05:06:09;;;;;;;;;;;11.40;99.40;;;;;;5054812;28;19909;-83
2022/03/29 05:08:34;;;;;;;;;;;11.10;99.90;;;;;;5054580;28;19981;-84
2022/03/29 05:11:00;;;;;;;;;;;11.00;99.90;;;;;;5036317;28;19916;-83
2022/03/29 05:13:27;;;;;;;;;;;10.80;99.90;;;;;;5054745;28;19959;-83
2022/03/29 05:15:53;;;;;;;;;;;10.60;99.90;;;;;;5054507;28;20396;-84
2022/03/29 05:18:18;;;;;;;;;;;10.60;99.90;;;;;;5054295;28;19920;-84
2022/03/29 05:20:44;;;;;;;;;;;10.60;99.90;;;;;;5053960;28;20428;-83
2022/03/29 05:23:10;;;;;;;;;;;10.90;99.90;;;;;;5054194;28;19909;-84
2022/03/29 05:25:36;;;;;;;;;;;11.10;99.90;;;;;;5054400;28;19919;-83
2022/03/29 05:28:01;;;;;;;;;;;11.10;99.90;;;;;;5054358;28;19955;-84
2022/03/29 05:30:29;;;;;;;;;;;11.10;99.90;;;;;;5053508;28;20256;-83
2022/03/29 05:32:57;;;;;;;;;;;11.10;99.90;;;;;;5053949;28;20337;-83
2022/03/29 05:35:25;;;;;;;;;;;10.90;99.90;;;;;;5036299;28;19909;-84
2022/03/29 05:37:51;;;;;;;;;;;10.80;99.90;;;;;;5036259;28;20427;-84
2022/03/29 05:40:16;;;;;;;;;;;10.80;99.90;;;;;;5053748;28;19913;-83
2022/03/29 05:42:42;;;;;;;;;;;10.80;99.90;;;;;;5036142;28;20373;-85
2022/03/29 05:45:09;;;;;;;;;;;10.40;99.90;;;;;;5053587;28;19936;-83
2022/03/29 05:50:18;;;;;;;;;;;10.40;99.90;;;;;;5053324;28;19936;-84
2022/03/29 05:52:44;;;;;;;;;;;10.40;99.90;;;;;;5053858;28;19910;-84
2022/03/29 05:55:10;;;;;;;;;;;10.40;99.90;;;;;;5035756;28;19988;-85
2022/03/29 05:57:35;;;;;;;;;;;10.20;99.90;;;;;;5053823;28;20281;-84
2022/03/29 06:00:01;;;;;;;;;;;10.20;99.90;;;;;;5038893;28;19959;-85
2022/03/29 06:02:27;;;;;;;;;;;10.20;99.90;;;;;;5073561;28;19912;-84
2022/03/29 06:04:53;;;;;;;;;;;10.10;99.90;;;;;;5073580;28;20292;-84
2022/03/29 06:07:20;;;;;;;;;;;10.10;99.90;;;;;;5073490;28;20301;-84
2022/03/29 06:09:45;;;;;;;;;;;10.20;99.90;;;;;;5055389;28;19908;-82
2022/03/29 06:12:11;;;;;;;;;;;10.30;99.90;;;;;;5073443;28;19972;-84
2022/03/29 06:14:36;;;;;;;;;;;10.50;99.90;;;;;;5073569;28;19962;-85
2022/03/29 06:17:04;;;;;;;;;;;10.50;99.90;;;;;;5075393;28;19909;-82
2022/03/29 06:19:30;;;;;;;;;;;10.50;99.90;;;;;;5093631;28;20011;-84
2022/03/29 06:21:55;;;;;;;;;;;10.80;99.90;;;;;;5074476;28;19948;-83
2022/03/29 06:24:22;;;;;;;;;;;10.80;99.90;;;;;;5055331;28;20319;-84
2022/03/29 06:26:48;;;;;;;;;;;11.00;99.90;;;;;;5073440;28;19912;-85
2022/03/29 06:29:13;;;;;;;;;;;11.00;99.90;;;;;;5073296;28;19909;-83
2022/03/29 06:31:39;;;;;;;;;;;10.90;99.90;;;;;;5054877;28;19957;-85
2022/03/29 06:34:05;;;;;;;;;;;10.70;99.90;;;;;;5072707;28;19962;-84
2022/03/29 06:36:31;;;;;;;;;;;10.80;99.90;;;;;;5073260;28;19963;-84
2022/03/29 06:38:56;;;;;;;;;;;11.00;99.90;;;;;;5073175;28;20367;-83
2022/03/29 06:41:22;;;;;;;;;;;11.10;99.90;;;;;;5072666;28;19908;-84
2022/03/29 06:43:48;;;;;;;;;;;11.50;99.90;;;;;;5073065;28;19917;-85
2022/03/29 06:46:14;;;;;;;;;;;11.70;99.90;;;;;;5073137;28;19908;-84
2022/03/29 06:48:41;;;;;;;;;;;11.80;99.90;;;;;;5073063;28;19908;-84
2022/03/29 06:51:12;;;;;;;;;;;12.00;99.90;;;;;;5065484;28;20379;-85
2022/03/29 06:53:38;;;;;;;;;;;11.90;99.90;;;;;;5093238;28;19912;-84
2022/03/29 06:56:04;;;;;;;;;;;11.80;99.90;;;;;;5093129;28;19947;-84
2022/03/29 06:58:30;;;;;;;;;;;11.60;99.90;;;;;;5093233;28;19940;-84
2022/03/29 07:00:56;;;;;;;;;;;11.60;99.90;;;;;;5091576;28;19970;-84
2022/03/29 07:03:23;;;;;;;;;;;11.70;99.90;;;;;;5093123;28;20376;-84
2022/03/29 07:05:49;;;;;;;;;;;11.70;99.90;;;;;;5093135;28;20253;-84
2022/03/29 07:08:20;;;;;;;;;;;11.70;99.90;;;;;;5092909;28;19912;-85
2022/03/29 07:13:29;;;;;;;;;;;12.00;99.90;;;;;;5093018;28;20268;-84
2022/03/29 07:15:55;;;;;;;;;;;12.20;99.90;;;;;;5093282;28;19912;-85
2022/03/29 07:18:21;;;;;;;;;;;12.30;99.90;;;;;;5093414;28;19934;-85
2022/03/29 07:20:46;;;;;;;;;;;12.70;99.90;;;;;;5092992;28;19939;-85
2022/03/29 07:23:12;;;;;;;;;;;12.80;99.90;;;;;;5093576;28;20268;-83
2022/03/29 07:25:38;;;;;;;;;;;12.50;99.90;;;;;;5093519;28;19912;-83
2022/03/29 07:28:04;;;;;;;;;;;12.70;99.90;;;;;;5093814;28;19908;-83
2022/03/29 07:30:30;;;;;;;;;;;12.90;99.90;;;;;;5075286;28;19916;-83
2022/03/29 07:33:00;;;;;;;;;;;12.90;99.90;;;;;;5093475;28;19956;-83
2022/03/29 07:35:28;;;;;;;;;;;12.90;99.90;;;;;;5093437;28;19908;-83
2022/03/29 07:37:57;;;;;;;;;;;12.90;99.90;;;;;;5093346;28;19908;-84
2022/03/29 07:40:24;;;;;;;;;;;12.80;99.90;;;;;;5092903;28;20261;-83
2022/03/29 07:42:50;;;;;;;;;;;12.90;99.90;;;;;;5074993;28;19908;-84
2022/03/29 07:45:16;;;;;;;;;;;13.20;99.90;;;;;;5076986;28;19912;-83
2022/03/29 07:47:42;;;;;;;;;;;13.20;99.90;;;;;;5096838;28;19912;-84
2022/03/29 07:50:09;;;;;;;;;;;13.20;99.90;;;;;;5096894;28;19908;-84
2022/03/29 07:52:35;;;;;;;;;;;13.20;99.90;;;;;;5097000;28;20292;-83
2022/03/29 07:55:01;;;;;;;;;;;13.20;99.90;;;;;;5078956;28;19930;-83
2022/03/29 07:57:27;;;;;;;;;;;13.00;99.90;;;;;;5096924;28;19912;-83
2022/03/29 07:59:53;;;;;;;;;;;13.10;99.90;;;;;;5078720;28;19908;-83
2022/03/29 08:02:18;;;;;;;;;;;13.00;99.90;;;;;;5059828;28;19957;-84
2022/03/29 08:04:44;;;;;;;;;;;13.20;99.90;;;;;;5076604;28;19919;-83
2022/03/29 08:07:09;;;;;;;;;;;13.20;99.90;;;;;;5058812;28;19909;-84
2022/03/29 08:09:35;;;;;;;;;;;13.10;99.90;;;;;;5058545;28;19909;-83
2022/03/29 08:12:00;;;;;;;;;;;13.30;99.90;;;;;;5073531;28;20285;-84
2022/03/29 08:14:26;;;;;;;;;;;13.40;99.90;;;;;;5096461;28;19959;-83
2022/03/29 08:16:53;;;;;;;;;;;13.50;99.90;;;;;;5096845;28;19908;-84
2022/03/29 08:19:19;;;;;;;;;;;13.60;99.90;;;;;;5096540;28;20391;-84
2022/03/29 08:21:49;;;;;;;;;;;13.80;99.90;;;;;;5096070;28;19912;-84
2022/03/29 08:24:15;;;;;;;;;;;13.60;99.90;;;;;;5078327;28;19942;-83
2022/03/29 08:26:41;;;;;;;;;;;13.80;99.90;;;;;;5096708;28;19912;-83
2022/03/29 08:29:08;;;;;;;;;;;14.00;99.90;;;;;;5096531;28;19912;-83
2022/03/29 08:31:34;;;;;;;;;;;13.90;99.90;;;;;;5083163;28;20003;-83
2022/03/29 08:33:59;;;;;;;;;;;13.80;99.90;;;;;;5058133;28;19959;-84
2022/03/29 08:36:25;;;;;;;;;;;13.60;99.90;;;;;;5076429;28;19915;-83
2022/03/29 08:38:50;;;;;;;;;;;13.70;99.90;;;;;;5076102;28;20249;-84
2022/03/29 08:41:17;;;;;;;;;;;13.80;99.90;;;;;;5084867;28;20006;-84
2022/03/29 08:43:43;;;;;;;;;;;13.80;99.90;;;;;;5077946;28;19908;-84
2022/03/29 08:46:09;;;;;;;;;;;13.80;99.90;;;;;;5096297;28;19908;-84
2022/03/29 08:48:34;;;;;;;;;;;14.20;99.90;;;;;;5096337;28;19908;-84
2022/03/29 08:51:00;;;;;;;;;;;13.90;99.90;;;;;;5071270;28;19908;-83
2022/03/29 08:53:28;;;;;;;;;;;14.20;99.90;;;;;;5075857;28;19913;-83
2022/03/29 08:55:54;;;;;;;;;;;14.30;99.90;;;;;;5074990;28;19908;-84
2022/03/29 08:58:22;;;;;;;;;;;14.60;99.90;;;;;;5075802;28;19909;-83
2022/03/29 09:00:51;;;;;;;;;;;14.70;99.90;;;;;;5075679;28;19912;-83
2022/03/29 09:03:17;;;;;;;;;;;14.90;99.90;;;;;;5075414;28;19948;-83
2022/03/29 09:05:43;;;;;;;;;;;15.00;99.90;;;;;;5075254;28;19916;-83
2022/03/29 09:08:09;;;;;;;;;;;15.00;99.90;;;;;;5075436;28;19908;-83
2022/03/29 09:10:44;;;;;;;;;;;15.20;99.90;;;;;;5074894;28;19915;-82
2022/03/29 09:13:15;;;;;;;;;;;15.10;99.90;;;;;;5075220;28;19912;-83
2022/03/29 09:15:41;;;;;;;;;;;15.10;99.90;;;;;;5057633;28;19908;-82
2022/03/29 09:18:08;;;;;;;;;;;15.10;99.90;;;;;;5053495;28;20312;-83
2022/03/29 09:20:33;;;;;;;;;;;15.00;99.90;;;;;;5054711;28;20377;-83
2022/03/29 09:22:59;;;;;;;;;;;15.10;99.90;;;;;;5054870;28;19909;-82
2022/03/29 09:25:35;;;;;;;;;;;15.60;99.90;;;;;;5070209;28;20274;-82
2022/03/29 09:28:12;;;;;;;;;;;16.00;99.90;;;;;;5054840;28;20295;-83
2022/03/29 09:30:39;;;;;;;;;;;16.60;99.90;;;;;;5053137;28;20332;-83
2022/03/29 09:33:10;;;;;;;;;;;17.00;99.90;;;;;;5053581;28;20273;-83
2022/03/29 09:35:54;;;;;;;;;;;17.70;99.90;;;;;;5054628;28;19909;-83
2022/03/29 09:38:21;;;;;;;;;;;17.80;98.20;;;;;;5054928;28;19916;-83
2022/03/29 09:40:47;;;;;;;;;;;17.50;98.90;;;;;;5054867;28;19913;-83
2022/03/29 09:43:13;;;;;;;;;;;17.70;97.90;;;;;;5054928;28;19915;-84
2022/03/29 09:45:42;;;;;;;;;;;17.10;97.50;;;;;;5054546;28;19913;-82
2022/03/29 09:48:37;;;;;;;;;;;17.60;97.30;;;;;;5054932;28;19999;-82
2022/03/29 09:51:14;;;;;;;;;;;18.20;96.90;;;;;;5049656;28;19996;-83
2022/03/29 09:53:43;;;;;;;;;;;18.30;95.30;;;;;;5053351;28;19909;-83
2022/03/29 09:56:10;;;;;;;;;;;21.70;89.80;;;;;;5053538;28;20296;-83
2022/03/29 09:58:36;;;;;;;;;;;20.40;87.70;;;;;;5053432;28;19909;-83
2022/03/29 10:01:02;;;;;;;;;;;19.50;86.40;;;;;;5054214;28;19908;-83
2022/03/29 10:03:28;;;;;;;;;;;18.50;91.20;;;;;;5054334;28;19913;-83
2022/03/29 10:06:01;;;;;;;;;;;17.90;93.80;;;;;;5054258;28;20385;-83
2022/03/29 10:11:14;;;;;;;;;;;17.20;97.20;;;;;;5054011;28;19963;-83
2022/03/29 10:13:40;;;;;;;;;;;17.30;96.80;;;;;;5054362;28;19908;-83
2022/03/29 10:16:09;;;;;;;;;;;16.90;97.40;;;;;;5054393;28;20357;-83
2022/03/29 10:18:35;;;;;;;;;;;17.00;97.10;;;;;;5053677;28;19947;-83
2022/03/29 10:21:02;;;;;;;;;;;17.40;97.70;;;;;;5054376;28;19908;-82
2022/03/29 10:23:29;;;;;;;;;;;18.30;95.60;;;;;;5036154;28;19916;-83
2022/03/29 10:25:55;;;;;;;;;;;20.90;89.80;;;;;;5036213;28;19913;-83
2022/03/29 10:28:25;;;;;;;;;;;23.00;79.90;;;;;;5057842;28;19991;-84
2022/03/29 10:30:50;;;;;;;;;;;25.60;66.60;;;;;;5072032;28;20266;-85
2022/03/29 10:33:17;;;;;;;;;;;27.30;60.90;;;;;;5054187;28;19915;-84
2022/03/29 10:36:02;;;;;;;;;;;26.70;59.30;;;;;;5035852;28;19915;-83
2022/03/29 10:38:51;;;;;;;;;;;23.00;66.40;;;;;;5039024;28;20339;-83
2022/03/29 10:41:29;;;;;;;;;;;22.30;70.30;;;;;;5062922;28;20410;-83
2022/03/29 10:44:01;;;;;;;;;;;20.90;73.20;;;;;;5074493;28;19909;-84
2022/03/29 10:46:39;;;;;;;;;;;21.30;72.80;;;;;;5074313;28;20378;-84
2022/03/29 10:49:24;;;;;;;;;;;20.50;75.40;;;;;;5074045;28;19908;-83
2022/03/29 10:51:51;;;;;;;;;;;20.90;73.50;;;;;;5046491;28;19962;-83
2022/03/29 10:54:23;;;;;;;;;;;22.20;71.50;;;;;;5053757;28;19935;-83
2022/03/29 10:56:55;;;;;;;;;;;22.90;66.00;;;;;;5035726;28;19909;-83
2022/03/29 10:59:21;;;;;;;;;;;21.70;69.50;;;;;;5054099;28;19909;-84
2022/03/29 11:02:05;;;;;;;;;;;23.50;67.90;;;;;;5036055;28;19908;-84
2022/03/29 11:04:31;;;;;;;;;;;25.70;63.90;;;;;;5053883;28;19912;-84
2022/03/29 11:07:02;;;;;;;;;;;25.20;58.90;;;;;;5035592;28;19913;-84
2022/03/29 11:09:28;;;;;;;;;;;26.10;60.10;;;;;;5053805;28;19916;-85
2022/03/29 11:11:53;;;;;;;;;;;28.80;55.50;;;;;;5062351;28;19908;-85
2022/03/29 11:14:35;;;;;;;;;;;26.40;57.20;;;;;;5055637;28;20364;-83
2022/03/29 11:17:08;;;;;;;;;;;24.30;59.30;;;;;;5057089;28;19971;-83
2022/03/29 11:19:46;;;;;;;;;;;24.70;61.30;;;;;;5095161;28;19912;-84
2022/03/29 11:22:24;;;;;;;;;;;28.00;59.50;;;;;;5086091;28;19908;-85
2022/03/29 11:24:50;;;;;;;;;;;31.00;51.80;;;;;;5077502;28;19924;-84
2022/03/29 11:27:22;;;;;;;;;;;30.40;52.80;;;;;;5077413;28;19940;-83
2022/03/29 11:29:48;;;;;;;;;;;28.00;49.40;;;;;;5077357;28;19958;-84
2022/03/29 11:32:14;;;;;;;;;;;29.90;51.30;;;;;;5076875;28;20311;-84
2022/03/29 11:34:40;;;;;;;;;;;31.10;48.90;;;;;;5076890;28;19916;-84
2022/03/29 11:37:06;;;;;;;;;;;31.90;48.10;;;;;;5076970;28;19958;-83
2022/03/29 11:39:32;;;;;;;;;;;32.50;47.80;;;;;;5059102;28;20265;-84
2022/03/29 11:41:58;;;;;;;;;;;29.90;48.70;;;;;;5058819;28;19909;-83
2022/03/29 11:44:24;;;;;;;;;;;27.20;48.20;;;;;;5059275;28;19999;-82
2022/03/29 11:46:55;;;;;;;;;;;27.10;52.40;;;;;;5059413;28;19915;-84
2022/03/29 11:49:22;;;;;;;;;;;29.20;51.50;;;;;;5059095;28;20281;-84
2022/03/29 11:52:23;;;;;;;;;;;31.50;48.00;;;;;;5076672;28;19909;-85
2022/03/29 11:54:52;;;;;;;;;;;35.60;44.90;;;;;;5034869;28;19996;-86
2022/03/29 11:57:23;;;;;;;;;;;31.80;46.40;;;;;;5069019;28;19909;-84
2022/03/29 11:59:49;;;;;;;;;;;33.90;45.20;;;;;;5076965;28;20349;-84
2022/03/29 12:02:15;;;;;;;;;;;32.40;44.60;;;;;;5076706;28;19919;-85
2022/03/29 12:04:42;;;;;;;;;;;27.10;48.20;;;;;;5058401;28;19919;-85
2022/03/29 12:07:07;;;;;;;;;;;27.20;50.50;;;;;;5076786;28;19917;-84
2022/03/29 12:09:33;;;;;;;;;;;25.20;52.90;;;;;;5077030;28;19909;-85
2022/03/29 12:12:01;;;;;;;;;;;24.70;53.90;;;;;;5076162;28;19909;-84
2022/03/29 12:14:27;;;;;;;;;;;24.80;55.80;;;;;;5075981;28;19913;-85
2022/03/29 12:16:55;;;;;;;;;;;27.50;53.20;;;;;;5074960;28;19916;-84
2022/03/29 12:19:22;;;;;;;;;;;27.70;51.50;;;;;;5037493;28;19913;-84
2022/03/29 12:21:49;;;;;;;;;;;27.70;51.70;;;;;;5037893;28;19913;-84
2022/03/29 12:24:15;;;;;;;;;;;28.60;50.50;;;;;;5056146;28;19912;-84
2022/03/29 12:26:42;;;;;;;;;;;27.40;49.50;;;;;;5055940;28;19915;-83
2022/03/29 12:29:10;;;;;;;;;;;32.10;48.70;;;;;;5055700;28;19952;-84
2022/03/29 12:31:36;;;;;;;;;;;33.60;44.70;;;;;;5040858;28;19944;-83
2022/03/29 12:34:02;;;;;;;;;;;33.90;45.10;;;;;;5076304;28;19916;-84
2022/03/29 12:36:28;;;;;;;;;;;38.10;43.00;;;;;;5058258;28;19955;-84
2022/03/29 12:38:55;;;;;;;;;;;33.60;42.10;;;;;;5075000;28;19908;-84
2022/03/29 12:41:34;;;;;;;;;;;33.60;43.90;;;;;;5074077;28;19908;-84
2022/03/29 12:44:00;;;;;;;;;;;36.70;40.70;;;;;;5038047;28;19908;-85
2022/03/29 12:46:26;;;;;;;;;;;35.60;41.40;;;;;;5038185;28;19935;-85
2022/03/29 12:48:52;;;;;;;;;;;33.40;40.60;;;;;;5055725;28;19943;-85
2022/03/29 12:51:28;;;;;;;;;;;35.60;40.70;;;;;;5055780;28;19936;-84
2022/03/29 12:53:55;;;;;;;;;;;32.80;43.00;;;;;;5055689;28;20336;-84
2022/03/29 12:56:28;;;;;;;;;;;29.50;45.40;;;;;;5037551;28;19916;-84
2022/03/29 12:58:54;;;;;;;;;;;29.70;46.40;;;;;;5038011;28;20265;-84
2022/03/29 13:01:27;;;;;;;;;;;31.90;44.90;;;;;;5055274;28;19908;-83
2022/03/29 13:03:52;;;;;;;;;;;27.00;47.50;;;;;;5055379;28;20380;-84
2022/03/29 13:06:18;;;;;;;;;;;29.80;46.40;;;;;;5037562;28;19909;-84
2022/03/29 13:08:43;;;;;;;;;;;29.60;46.10;;;;;;5037536;28;19909;-84
2022/03/29 13:11:18;;;;;;;;;;;32.40;45.90;;;;;;5055415;28;19974;-84
2022/03/29 13:13:44;;;;;;;;;;;31.80;44.10;;;;;;5057301;28;19954;-84
2022/03/29 13:16:21;;;;;;;;;;;34.60;42.70;;;;;;5057394;28;19999;-84
2022/03/29 13:18:46;;;;;;;;;;;33.10;42.00;;;;;;5070341;28;20380;-84
2022/03/29 13:21:21;;;;;;;;;;;37.30;41.40;;;;;;5074909;28;19909;-84
2022/03/29 13:23:47;;;;;;;;;;;37.90;38.90;;;;;;5075237;28;19909;-84
2022/03/29 13:26:14;;;;;;;;;;;30.80;40.90;;;;;;5075165;28;19916;-83
2022/03/29 13:28:41;;;;;;;;;;;31.60;44.80;;;;;;5075005;28;19962;-84
2022/03/29 13:31:08;;;;;;;;;;;28.90;46.00;;;;;;5074951;28;20325;-83
2022/03/29 13:33:34;;;;;;;;;;;31.70;45.70;;;;;;5056110;28;19959;-84
2022/03/29 13:36:04;;;;;;;;;;;33.00;43.40;;;;;;5054673;28;19908;-84
2022/03/29 13:38:31;;;;;;;;;;;32.80;41.80;;;;;;5055227;28;19962;-83
2022/03/29 13:40:56;;;;;;;;;;;29.70;45.90;;;;;;5053392;28;20369;-83
2022/03/29 13:43:22;;;;;;;;;;;31.80;43.30;;;;;;5069402;28;19909;-83
2022/03/29 13:45:47;;;;;;;;;;;31.70;44.30;;;;;;5074734;28;20340;-83
2022/03/29 13:48:13;;;;;;;;;;;28.20;47.10;;;;;;5073595;28;19943;-82
2022/03/29 13:50:40;;;;;;;;;;;27.20;48.50;;;;;;5073565;28;19908;-83
2022/03/29 13:53:06;;;;;;;;;;;31.80;46.80;;;;;;5073912;28;20439;-84
2022/03/29 13:55:34;;;;;;;;;;;31.90;44.90;;;;;;5073038;28;19909;-84
2022/03/29 13:58:04;;;;;;;;;;;30.20;45.00;;;;;;5074392;28;19909;-83
2022/03/29 14:00:31;;;;;;;;;;;29.60;46.30;;;;;;5074633;28;19908;-83
2022/03/29 14:02:57;;;;;;;;;;;26.90;48.00;;;;;;5060161;28;20427;-83
2022/03/29 14:05:23;;;;;;;;;;;25.90;49.60;;;;;;5054580;28;20412;-83
2022/03/29 14:07:49;;;;;;;;;;;28.60;46.90;;;;;;5053176;28;20006;-84
2022/03/29 14:10:15;;;;;;;;;;;31.40;45.00;;;;;;5053407;28;19919;-84
2022/03/29 14:12:41;;;;;;;;;;;26.30;45.40;;;;;;5054171;28;20287;-83
2022/03/29 14:15:08;;;;;;;;;;;26.00;48.80;;;;;;5054010;28;19988;-83
2022/03/29 14:17:33;;;;;;;;;;;26.40;49.30;;;;;;5055934;28;20338;-83
2022/03/29 14:19:59;;;;;;;;;;;26.90;49.00;;;;;;5055905;28;19908;-82
2022/03/29 14:22:25;;;;;;;;;;;28.00;48.80;;;;;;5073858;28;19958;-82
2022/03/29 14:24:50;;;;;;;;;;;29.80;47.00;;;;;;5074337;28;19938;-84
2022/03/29 14:27:16;;;;;;;;;;;30.60;46.20;;;;;;5074339;28;19987;-83